Time;durP1;ratioP1;P1;durP2;ratioP2;P2;SDS_P1;SDS_P2;PMS_P1;PMS_P2;Temp;Humidity;BMP_temperature;BMP_pressure;BME280_temperature;BME280_humidity;BME280_pressure;Samples;Min_cycle;Max_cycle;Signal;HPM_P1;HPM_P2
2023/12/16 07:53:43;;;;;;;;;;;;;;;6.42;64.73;99084.00;4206253;27;10420;-73
2023/12/16 07:55:46;;;;;;;;;;;;;;;6.69;63.67;99084.63;4198692;28;5776;-72
2023/12/16 07:57:49;;;;;;;;;;;;;;;6.90;63.10;99086.59;4205702;28;5836;-72
2023/12/16 07:59:52;;;;;;;;;;;;;;;7.12;62.45;99091.09;4212691;28;6512;-73
2023/12/16 08:01:57;;;;;;;;;;;;;;;7.30;61.87;99084.44;4197954;28;5879;-73
2023/12/16 08:04:00;;;;;;;;;;;;;;;7.46;62.12;99095.47;4198281;28;5700;-73
2023/12/16 08:06:02;;;;;;;;;;;;;;;7.62;61.65;99102.22;4208106;28;5692;-72
2023/12/16 08:08:05;;;;;;;;;;;;;;;7.75;61.61;99102.94;4213821;28;5797;-73
2023/12/16 08:10:10;;;;;;;;;;;;;;;7.87;61.80;99096.72;4207803;28;5691;-71
2023/12/16 08:12:13;;;;;;;;;;;;;;;7.93;61.56;99103.28;4214594;28;6377;-72
2023/12/16 08:14:15;;;;;;;;;;;;;;;8.04;61.59;99109.41;4205079;28;5692;-73
2023/12/16 08:16:18;;;;;;;;;;;;;;;8.12;61.17;99111.41;4214657;28;5836;-73
2023/12/16 08:18:21;;;;;;;;;;;;;;;8.14;60.87;99107.69;4214673;28;5754;-73
2023/12/16 08:20:25;;;;;;;;;;;;;;;8.23;61.00;99097.41;4208514;28;5832;-73
2023/12/16 08:22:28;;;;;;;;;;;;;;;8.32;60.65;99101.94;4213728;28;5854;-72
2023/12/16 08:24:32;;;;;;;;;;;;;;;8.39;60.34;99101.38;4213937;28;5802;-73
2023/12/16 08:26:35;;;;;;;;;;;;;;;8.45;60.13;99094.75;4214358;28;5848;-72
2023/12/16 08:28:40;;;;;;;;;;;;;;;8.49;59.67;99100.59;4206103;28;5799;-72
2023/12/16 08:30:44;;;;;;;;;;;;;;;8.51;59.53;99098.72;4212815;28;5757;-72
2023/12/16 08:32:46;;;;;;;;;;;;;;;8.53;59.07;99097.63;4198225;28;5741;-72
2023/12/16 08:34:49;;;;;;;;;;;;;;;8.54;59.11;99106.34;4214154;28;6447;-73
2023/12/16 08:36:54;;;;;;;;;;;;;;;8.58;58.89;99111.25;4205084;28;5825;-77
2023/12/16 08:38:56;;;;;;;;;;;;;;;8.62;58.99;99112.69;4211082;28;5826;-77
2023/12/16 08:41:00;;;;;;;;;;;;;;;8.68;58.93;99121.88;4208187;28;5950;-77
2023/12/16 08:43:04;;;;;;;;;;;;;;;8.72;58.77;99116.25;4199688;28;5699;-76
2023/12/16 08:45:08;;;;;;;;;;;;;;;8.80;58.63;99120.06;4206392;28;5725;-76
2023/12/16 08:47:10;;;;;;;;;;;;;;;8.83;58.70;99120.63;4208785;28;5723;-76
2023/12/16 08:49:13;;;;;;;;;;;;;;;8.87;58.28;99115.97;4207857;28;5732;-77
2023/12/16 08:51:21;;;;;;;;;;;;;;;8.90;58.50;99123.63;4202009;28;5792;-76
2023/12/16 08:53:24;;;;;;;;;;;;;;;8.92;57.96;99129.59;4205660;28;5840;-77
2023/12/16 08:55:27;;;;;;;;;;;;;;;8.94;55.97;99127.66;4193272;28;5796;-76
2023/12/16 08:57:32;;;;;;;;;;;;;;;8.90;56.95;99126.25;4196171;28;5715;-77
2023/12/16 08:59:36;;;;;;;;;;;;;;;8.90;56.86;99116.53;4197807;28;5758;-76
2023/12/16 09:01:39;;;;;;;;;;;;;;;8.94;56.01;99125.03;4198840;28;5802;-77
2023/12/16 09:03:43;;;;;;;;;;;;;;;8.94;55.88;99133.78;4196831;28;5711;-77
2023/12/16 09:05:47;;;;;;;;;;;;;;;8.97;56.10;99130.09;4194835;28;5799;-76
2023/12/16 09:07:50;;;;;;;;;;;;;;;9.00;55.64;99116.63;4192038;28;5705;-78
2023/12/16 09:09:53;;;;;;;;;;;;;;;9.01;55.35;99129.69;4194346;28;5860;-78
2023/12/16 09:11:56;;;;;;;;;;;;;;;9.01;55.17;99126.22;4192024;28;5701;-77
2023/12/16 09:14:04;;;;;;;;;;;;;;;8.99;55.51;99136.91;4200984;28;6474;-77
2023/12/16 09:16:09;;;;;;;;;;;;;;;9.01;55.67;99127.06;4194269;28;5897;-78
2023/12/16 09:18:12;;;;;;;;;;;;;;;9.05;55.65;99140.81;4192063;28;5935;-77
2023/12/16 09:20:20;;;;;;;;;;;;;;;9.10;55.71;99137.81;4184956;28;5812;-77
2023/12/16 09:22:25;;;;;;;;;;;;;;;9.11;55.42;99135.06;4193453;28;5949;-69
2023/12/16 09:24:30;;;;;;;;;;;;;;;9.15;55.75;99130.34;4189795;28;5877;-78
2023/12/16 09:26:34;;;;;;;;;;;;;;;9.17;55.60;99133.69;4198078;28;5847;-77
2023/12/16 09:28:38;;;;;;;;;;;;;;;9.19;55.16;99135.25;4193278;28;5731;-78
2023/12/16 09:30:42;;;;;;;;;;;;;;;9.21;55.34;99141.25;4194302;28;5774;-73
2023/12/16 09:32:49;;;;;;;;;;;;;;;9.22;55.21;99140.28;4197143;28;5743;-76
2023/12/16 09:34:53;;;;;;;;;;;;;;;9.23;54.97;99139.31;4193491;28;5782;-77
2023/12/16 09:36:56;;;;;;;;;;;;;;;9.26;54.97;99136.41;4188526;28;5758;-76
2023/12/16 09:38:59;;;;;;;;;;;;;;;9.29;54.70;99135.34;4191979;28;6528;-76
2023/12/16 09:41:02;;;;;;;;;;;;;;;9.31;54.82;99133.41;4189721;28;5725;-77
2023/12/16 09:43:15;;;;;;;;;;;;;;;9.34;54.49;99136.63;4192183;28;5860;-75
2023/12/16 09:45:18;;;;;;;;;;;;;;;9.33;54.31;99134.94;4189638;28;5703;-77
2023/12/16 09:47:21;;;;;;;;;;;;;;;9.30;53.30;99132.56;4200176;28;5707;-76
2023/12/16 09:49:27;;;;;;;;;;;;;;;9.28;53.81;99138.91;4192562;28;5807;-77
2023/12/16 09:51:30;;;;;;;;;;;;;;;9.29;53.81;99146.72;4184544;28;6920;-76
2023/12/16 09:53:32;;;;;;;;;;;;;;;9.30;53.45;99143.13;4192234;28;5709;-77
2023/12/16 09:55:36;;;;;;;;;;;;;;;9.30;52.94;99139.66;4199097;28;5787;-75
2023/12/16 09:57:40;;;;;;;;;;;;;;;9.27;52.23;99132.78;4195267;28;5894;-76
2023/12/16 09:59:44;;;;;;;;;;;;;;;9.21;52.50;99133.31;4196041;28;5788;-77
2023/12/16 10:01:51;;;;;;;;;;;;;;;9.20;53.12;99136.94;4185240;28;5705;-76
2023/12/16 10:03:55;;;;;;;;;;;;;;;9.22;52.71;99140.28;4194539;28;5782;-76
2023/12/16 10:05:59;;;;;;;;;;;;;;;9.26;51.73;99138.22;4183215;28;5718;-76
2023/12/16 10:08:04;;;;;;;;;;;;;;;9.26;52.08;99139.03;4194667;28;5699;-76
2023/12/16 10:10:09;;;;;;;;;;;;;;;9.29;51.47;99132.69;4195494;28;5707;-76
2023/12/16 10:12:13;;;;;;;;;;;;;;;9.32;51.31;99133.28;4190719;28;5713;-76
2023/12/16 10:14:16;;;;;;;;;;;;;;;9.33;51.68;99134.09;4183223;28;5713;-76
2023/12/16 10:16:18;;;;;;;;;;;;;;;9.30;51.05;99135.22;4186896;28;5819;-76
2023/12/16 10:18:21;;;;;;;;;;;;;;;9.25;51.39;99136.53;4187245;28;5794;-76
2023/12/16 10:20:24;;;;;;;;;;;;;;;9.29;51.71;99132.69;4187046;28;5733;-77
2023/12/16 10:22:29;;;;;;;;;;;;;;;9.31;51.37;99125.47;4187389;28;5732;-77
2023/12/16 10:24:33;;;;;;;;;;;;;;;9.34;51.30;99127.84;4193264;28;5800;-77
2023/12/16 10:26:42;;;;;;;;;;;;;;;9.35;50.65;99121.59;4192740;28;5808;-77
2023/12/16 10:28:46;;;;;;;;;;;;;;;9.32;49.35;99128.00;4189618;28;5778;-78
2023/12/16 10:30:49;;;;;;;;;;;;;;;9.24;49.63;99119.88;4193274;28;5786;-76
2023/12/16 10:32:55;;;;;;;;;;;;;;;9.22;50.08;99116.53;4195046;28;5838;-76
2023/12/16 10:34:58;;;;;;;;;;;;;;;9.25;50.48;99110.97;4194675;28;5786;-76
2023/12/16 10:37:04;;;;;;;;;;;;;;;9.28;50.17;99110.72;4196286;28;5932;-77
2023/12/16 10:39:09;;;;;;;;;;;;;;;9.30;50.40;99119.38;4186789;28;5700;-77
2023/12/16 10:41:12;;;;;;;;;;;;;;;9.34;50.76;99117.31;4186623;28;5725;-77
2023/12/16 10:43:15;;;;;;;;;;;;;;;9.34;50.07;99114.66;4186745;28;5921;-77
2023/12/16 10:45:18;;;;;;;;;;;;;;;9.27;49.27;99114.31;4191434;28;5809;-77
2023/12/16 10:47:26;;;;;;;;;;;;;;;9.18;50.17;99109.84;4188878;28;5814;-77
2023/12/16 10:49:29;;;;;;;;;;;;;;;9.19;49.92;99108.88;4191214;28;5902;-77
2023/12/16 10:51:35;;;;;;;;;;;;;;;9.18;50.34;99095.81;4191322;28;5775;-77
2023/12/16 10:53:40;;;;;;;;;;;;;;;9.22;50.40;99090.13;4190843;28;5779;-77
2023/12/16 10:55:48;;;;;;;;;;;;;;;9.30;50.48;99098.25;4193028;28;5741;-76
2023/12/16 10:57:59;;;;;;;;;;;;;;;9.36;50.61;99094.25;4194248;28;5716;-77
2023/12/16 11:00:05;;;;;;;;;;;;;;;9.39;50.70;99080.78;4192005;28;5713;-77
2023/12/16 11:02:22;;;;;;;;;;;;;;;9.42;50.57;99079.72;4194886;28;5763;-77
2023/12/16 11:04:34;;;;;;;;;;;;;;;9.48;50.86;99080.00;4194742;28;5671;-77
2023/12/16 11:06:40;;;;;;;;;;;;;;;9.50;50.71;99071.94;4198336;28;5704;-77
2023/12/16 11:08:44;;;;;;;;;;;;;;;9.54;50.29;99074.22;4188705;28;5700;-76
2023/12/16 11:10:48;;;;;;;;;;;;;;;9.56;50.78;99074.91;4185401;28;6414;-77
2023/12/16 11:12:53;;;;;;;;;;;;;;;9.56;50.43;99071.44;4198768;28;5846;-77
2023/12/16 11:14:56;;;;;;;;;;;;;;;9.60;50.71;99063.09;4190791;28;5628;-77
2023/12/16 11:17:08;;;;;;;;;;;;;;;9.64;50.38;99061.06;4191931;28;5727;-77
2023/12/16 11:19:13;;;;;;;;;;;;;;;9.65;50.63;99061.91;4184096;28;5720;-77
2023/12/16 11:21:19;;;;;;;;;;;;;;;9.66;50.67;99058.28;4193342;28;5561;-77
2023/12/16 11:23:23;;;;;;;;;;;;;;;9.70;50.69;99064.97;4185839;28;7222;-76
2023/12/16 11:25:27;;;;;;;;;;;;;;;9.74;50.76;99053.16;4189735;28;5695;-77
2023/12/16 11:27:32;;;;;;;;;;;;;;;9.73;50.16;99049.69;4193937;28;5701;-77
2023/12/16 11:29:35;;;;;;;;;;;;;;;9.75;50.45;99052.22;4199603;28;5684;-77
2023/12/16 11:31:38;;;;;;;;;;;;;;;9.77;50.48;99045.81;4192336;28;5703;-77
2023/12/16 11:33:44;;;;;;;;;;;;;;;9.79;50.00;99051.81;4200088;28;5747;-77
2023/12/16 11:35:49;;;;;;;;;;;;;;;9.79;49.92;99043.88;4199413;28;5683;-77
2023/12/16 11:37:53;;;;;;;;;;;;;;;9.80;50.19;99037.63;4195408;28;5750;-76
2023/12/16 11:39:55;;;;;;;;;;;;;;;9.81;50.31;99035.81;4193882;28;5778;-76
2023/12/16 11:41:58;;;;;;;;;;;;;;;9.80;50.20;99048.19;4197294;28;5815;-76
2023/12/16 11:44:02;;;;;;;;;;;;;;;9.81;50.06;99034.00;4185860;28;5899;-73
2023/12/16 11:46:04;;;;;;;;;;;;;;;9.83;49.72;99040.00;4197073;28;5733;-74
2023/12/16 11:48:10;;;;;;;;;;;;;;;9.83;49.44;99037.34;4191887;28;5807;-75
2023/12/16 11:50:13;;;;;;;;;;;;;;;9.82;49.51;99029.56;4187849;28;5700;-76
2023/12/16 11:52:17;;;;;;;;;;;;;;;9.84;49.65;99033.72;4191446;28;5695;-74
2023/12/16 11:54:22;;;;;;;;;;;;;;;9.86;48.83;99026.53;4191931;28;5703;-73
2023/12/16 11:56:24;;;;;;;;;;;;;;;9.88;49.50;99029.88;4191664;28;5806;-75
2023/12/16 11:58:27;;;;;;;;;;;;;;;9.87;49.42;99020.28;4187242;28;5753;-71
2023/12/16 12:00:32;;;;;;;;;;;;;;;9.90;49.45;99032.38;4190271;28;5699;-75
2023/12/16 12:02:35;;;;;;;;;;;;;;;9.90;49.25;99020.00;4192543;28;5784;-74
2023/12/16 12:04:38;;;;;;;;;;;;;;;9.92;49.11;99019.84;4191323;28;5709;-74
2023/12/16 12:06:41;;;;;;;;;;;;;;;9.90;49.43;99027.09;4191796;28;5713;-73
2023/12/16 12:08:44;;;;;;;;;;;;;;;9.93;49.40;99026.81;4183619;28;5717;-74
2023/12/16 12:10:47;;;;;;;;;;;;;;;9.93;49.43;99026.81;4193518;28;5729;-74
2023/12/16 12:12:52;;;;;;;;;;;;;;;9.91;49.48;99021.66;4182912;28;5732;-72
2023/12/16 12:14:55;;;;;;;;;;;;;;;9.92;49.32;99018.06;4183205;28;5704;-75
2023/12/16 12:16:59;;;;;;;;;;;;;;;9.94;49.21;99017.91;4185502;28;5724;-74
2023/12/16 12:19:02;;;;;;;;;;;;;;;9.94;49.27;99017.91;4191648;28;5881;-74
2023/12/16 12:21:06;;;;;;;;;;;;;;;9.91;48.76;99008.47;4196569;28;5737;-73
2023/12/16 12:23:09;;;;;;;;;;;;;;;9.88;48.94;99006.09;4187276;28;5697;-74
2023/12/16 12:25:17;;;;;;;;;;;;;;;9.85;48.93;98997.59;4191563;28;5822;-74
2023/12/16 12:27:21;;;;;;;;;;;;;;;9.82;48.88;98996.06;4199239;28;5711;-76
2023/12/16 12:29:24;;;;;;;;;;;;;;;9.80;48.96;99003.28;4185009;28;5726;-75
2023/12/16 12:31:27;;;;;;;;;;;;;;;9.82;48.88;98997.84;4186490;28;5935;-74
2023/12/16 12:33:31;;;;;;;;;;;;;;;9.83;49.17;98999.53;4193053;28;6544;-73
2023/12/16 12:35:35;;;;;;;;;;;;;;;9.79;49.00;98998.13;4194293;28;5737;-75
2023/12/16 12:37:38;;;;;;;;;;;;;;;9.76;48.87;98993.13;4187273;28;5721;-76
2023/12/16 12:39:42;;;;;;;;;;;;;;;9.83;48.75;98994.25;4203977;28;5687;-73
2023/12/16 12:41:45;;;;;;;;;;;;;;;9.83;48.91;98995.06;4202990;28;5683;-74
2023/12/16 12:43:49;;;;;;;;;;;;;;;9.82;49.01;98998.69;4193794;28;5716;-74
2023/12/16 12:46:06;;;;;;;;;;;;;;;9.82;48.84;98993.41;4188432;28;5713;-73
2023/12/16 12:48:13;;;;;;;;;;;;;;;9.84;48.91;98995.91;4196192;28;5839;-74
2023/12/16 12:50:22;;;;;;;;;;;;;;;9.79;48.64;98988.41;4190261;28;6411;-75
2023/12/16 12:52:36;;;;;;;;;;;;;;;9.81;48.86;98982.97;4194114;28;5736;-75
2023/12/16 12:54:59;;;;;;;;;;;;;;;9.86;48.84;98983.44;4186304;28;5697;-75
2023/12/16 12:57:02;;;;;;;;;;;;;;;9.89;48.69;98981.34;4188970;28;5699;-75
2023/12/16 12:59:04;;;;;;;;;;;;;;;9.93;48.75;98982.72;4190735;28;5720;-75
2023/12/16 13:01:27;;;;;;;;;;;;;;;9.92;48.56;98973.13;4195699;28;5724;-74
2023/12/16 13:03:30;;;;;;;;;;;;;;;9.93;48.52;98985.38;4187721;28;5839;-74
2023/12/16 13:05:35;;;;;;;;;;;;;;;9.87;48.40;98980.66;4194176;28;5728;-74
2023/12/16 13:07:38;;;;;;;;;;;;;;;9.85;48.53;98977.31;4200666;28;5702;-75
2023/12/16 13:09:41;;;;;;;;;;;;;;;9.80;48.40;98979.50;4201966;28;5699;-74
2023/12/16 13:11:44;;;;;;;;;;;;;;;9.80;48.22;98978.66;4187939;28;5787;-73
2023/12/16 13:13:47;;;;;;;;;;;;;;;9.80;48.48;98978.66;4188929;28;5701;-74
2023/12/16 13:15:50;;;;;;;;;;;;;;;9.84;48.80;98975.59;4187682;28;5711;-74
2023/12/16 13:17:58;;;;;;;;;;;;;;;9.89;49.00;98975.22;4191916;28;5783;-74
2023/12/16 13:20:03;;;;;;;;;;;;;;;9.90;48.79;98969.81;4193149;28;5851;-74
2023/12/16 13:22:07;;;;;;;;;;;;;;;9.87;49.02;98970.09;4194465;28;5701;-65
2023/12/16 13:24:10;;;;;;;;;;;;;;;9.92;49.48;98967.03;4195050;28;5109;-67
2023/12/16 13:26:15;;;;;;;;;;;;;;;9.92;49.43;98974.94;4192742;28;5712;-67
2023/12/16 13:28:18;;;;;;;;;;;;;;;9.88;49.54;98971.75;4188163;28;5760;-77
2023/12/16 13:30:21;;;;;;;;;;;;;;;9.91;49.46;98975.91;4195065;28;6527;-67
2023/12/16 13:32:24;;;;;;;;;;;;;;;9.94;49.59;98973.00;4194091;28;5737;-69
2023/12/16 13:34:27;;;;;;;;;;;;;;;9.92;49.86;98975.78;4192547;28;5820;-68
2023/12/16 13:36:30;;;;;;;;;;;;;;;9.92;49.66;98974.94;4193905;28;6556;-68
2023/12/16 13:38:54;;;;;;;;;;;;;;;9.94;49.89;98975.63;4189057;28;6400;-67
2023/12/16 13:40:57;;;;;;;;;;;;;;;9.93;49.48;98979.25;4197703;28;6369;-68
2023/12/16 13:43:00;;;;;;;;;;;;;;;9.92;49.64;98983.72;4197968;28;5090;-67
2023/12/16 13:45:07;;;;;;;;;;;;;;;9.92;50.00;98973.13;4189724;28;8460;-70
2023/12/16 13:47:10;;;;;;;;;;;;;;;9.92;49.85;98978.41;4194080;28;5872;-69
2023/12/16 13:49:13;;;;;;;;;;;;;;;9.91;49.48;98976.75;4187488;28;6801;-68
2023/12/16 13:51:16;;;;;;;;;;;;;;;9.90;49.49;98972.44;4195474;28;5780;-69
2023/12/16 13:53:19;;;;;;;;;;;;;;;9.91;49.62;98971.47;4191246;28;5902;-69
2023/12/16 13:55:23;;;;;;;;;;;;;;;9.93;49.46;98974.81;4190424;28;6385;-69
2023/12/16 13:57:26;;;;;;;;;;;;;;;9.89;49.34;98969.94;4189794;28;6332;-69
2023/12/16 13:59:32;;;;;;;;;;;;;;;9.86;49.69;98968.41;4192362;28;5767;-69
2023/12/16 14:01:35;;;;;;;;;;;;;;;9.87;49.62;98970.09;4198574;28;5911;-69
2023/12/16 14:03:38;;;;;;;;;;;;;;;9.87;49.82;98962.16;4197626;28;5819;-69
2023/12/16 14:05:41;;;;;;;;;;;;;;;9.87;49.55;98964.78;4187174;28;5705;-69
2023/12/16 14:07:44;;;;;;;;;;;;;;;9.87;49.85;98964.78;4188574;28;5844;-70
2023/12/16 14:09:47;;;;;;;;;;;;;;;9.89;49.73;98962.84;4188435;28;5808;-69
2023/12/16 14:11:52;;;;;;;;;;;;;;;9.88;49.66;98966.47;4192303;28;5898;-69
2023/12/16 14:13:55;;;;;;;;;;;;;;;9.85;49.28;98956.19;4185423;28;5830;-70
2023/12/16 14:15:58;;;;;;;;;;;;;;;9.83;49.44;98963.38;4199832;28;5820;-70
2023/12/16 14:18:01;;;;;;;;;;;;;;;9.84;49.58;98957.13;4189199;28;5823;-70
2023/12/16 14:20:04;;;;;;;;;;;;;;;9.84;49.40;98951.84;4191557;28;6564;-70
2023/12/16 14:22:08;;;;;;;;;;;;;;;9.81;49.23;98954.75;4186761;28;5695;-70
2023/12/16 14:24:10;;;;;;;;;;;;;;;9.77;49.24;98958.66;4191414;28;5719;-70
2023/12/16 14:26:13;;;;;;;;;;;;;;;9.72;49.70;98958.19;4195059;28;5707;-69
2023/12/16 14:28:17;;;;;;;;;;;;;;;9.71;49.26;98959.19;4196177;28;5716;-70
2023/12/16 14:30:20;;;;;;;;;;;;;;;9.66;49.31;98960.56;4199709;28;5703;-71
2023/12/16 14:32:23;;;;;;;;;;;;;;;9.63;49.22;98956.41;4191354;28;5815;-70
2023/12/16 14:34:26;;;;;;;;;;;;;;;9.63;49.30;98956.41;4191258;28;5853;-70
2023/12/16 14:36:30;;;;;;;;;;;;;;;9.65;49.29;98962.38;4185188;28;6063;-73
2023/12/16 14:38:33;;;;;;;;;;;;;;;9.64;49.13;98958.06;4187901;28;7005;-73
2023/12/16 14:40:36;;;;;;;;;;;;;;;9.64;49.49;98960.72;4191155;28;6552;-71
2023/12/16 14:42:39;;;;;;;;;;;;;;;9.65;49.66;98959.72;4195603;28;6571;-72
2023/12/16 14:44:44;;;;;;;;;;;;;;;9.69;49.57;98961.13;4186854;28;5721;-70
2023/12/16 14:46:47;;;;;;;;;;;;;;;9.70;49.48;98959.31;4191681;28;5688;-71
2023/12/16 14:48:49;;;;;;;;;;;;;;;9.72;49.59;98966.13;4188078;28;5713;-72
2023/12/16 14:50:52;;;;;;;;;;;;;;;9.72;49.40;98960.84;4184656;28;5824;-71
2023/12/16 14:52:55;;;;;;;;;;;;;;;9.74;49.57;98966.00;4199103;28;5767;-71
2023/12/16 14:54:58;;;;;;;;;;;;;;;9.76;49.78;98970.19;4189371;28;5843;-71
2023/12/16 14:57:01;;;;;;;;;;;;;;;9.77;49.62;98971.84;4191245;28;5893;-71
2023/12/16 14:59:03;;;;;;;;;;;;;;;9.76;49.37;98966.72;4198090;28;7111;-72
2023/12/16 15:01:07;;;;;;;;;;;;;;;9.79;49.57;98971.72;4196103;28;5114;-72
2023/12/16 15:03:11;;;;;;;;;;;;;;;9.78;49.71;98970.88;4187413;28;7401;-71
2023/12/16 15:05:14;;;;;;;;;;;;;;;9.78;49.75;98962.97;4187794;28;5916;-73
2023/12/16 15:07:22;;;;;;;;;;;;;;;9.76;49.45;98972.84;4193030;28;5850;-71
2023/12/16 15:09:24;;;;;;;;;;;;;;;9.75;49.46;98976.44;4191965;28;5708;-71
2023/12/16 15:11:27;;;;;;;;;;;;;;;9.74;49.65;98980.06;4190682;28;5762;-71
2023/12/16 15:13:30;;;;;;;;;;;;;;;9.72;49.52;98984.63;4189562;28;5797;-71
2023/12/16 15:15:33;;;;;;;;;;;;;;;9.71;49.80;98982.13;4189157;28;5870;-71
2023/12/16 15:17:38;;;;;;;;;;;;;;;9.72;49.63;98986.41;4190608;28;5759;-72
2023/12/16 15:19:41;;;;;;;;;;;;;;;9.71;49.84;98990.88;4193426;28;5122;-71
2023/12/16 15:21:44;;;;;;;;;;;;;;;9.73;49.67;98988.09;4197401;28;7746;-72
2023/12/16 15:23:47;;;;;;;;;;;;;;;9.74;49.69;98995.91;4196489;28;5762;-71
2023/12/16 15:25:51;;;;;;;;;;;;;;;9.74;49.52;98995.91;4192404;28;5786;-68
2023/12/16 15:27:53;;;;;;;;;;;;;;;9.74;49.59;98998.56;4187124;28;6603;-79
2023/12/16 15:29:55;;;;;;;;;;;;;;;9.72;49.59;98991.69;4186563;28;6664;-75
2023/12/16 15:32:00;;;;;;;;;;;;;;;9.66;49.65;98990.44;4194442;28;5794;-72
2023/12/16 15:34:04;;;;;;;;;;;;;;;9.58;49.99;98985.81;4191593;28;5811;-71
2023/12/16 15:36:09;;;;;;;;;;;;;;;9.56;49.94;98992.22;4189619;28;5843;-69
2023/12/16 15:38:13;;;;;;;;;;;;;;;9.57;49.96;98991.25;4193418;28;5880;-76
2023/12/16 15:40:15;;;;;;;;;;;;;;;9.56;49.84;98990.41;4192407;28;5220;-71
2023/12/16 15:42:17;;;;;;;;;;;;;;;9.56;49.92;98993.06;4189080;28;5699;-71
2023/12/16 15:44:21;;;;;;;;;;;;;;;9.53;49.99;98989.84;4189181;28;5746;-70
2023/12/16 15:46:24;;;;;;;;;;;;;;;9.54;49.75;98984.44;4190018;28;5787;-71
2023/12/16 15:48:27;;;;;;;;;;;;;;;9.55;50.01;98980.81;4184519;28;6557;-74
2023/12/16 15:50:31;;;;;;;;;;;;;;;9.54;49.96;98976.50;4186948;28;5086;-74
2023/12/16 15:52:36;;;;;;;;;;;;;;;9.56;49.87;98977.22;4191831;28;7767;-68
2023/12/16 15:54:39;;;;;;;;;;;;;;;9.55;50.13;98970.25;4187420;28;7735;-71
2023/12/16 15:56:42;;;;;;;;;;;;;;;9.55;50.21;98964.97;4188827;28;5782;-71
2023/12/16 15:58:46;;;;;;;;;;;;;;;9.56;49.89;98963.16;4189851;28;5882;-73
2023/12/16 16:00:49;;;;;;;;;;;;;;;9.56;50.26;98965.81;4191055;28;6164;-72
2023/12/16 16:02:55;;;;;;;;;;;;;;;9.57;50.07;98970.94;4190834;28;5858;-70
2023/12/16 16:05:01;;;;;;;;;;;;;;;9.56;50.14;98963.16;4195198;28;5830;-75
2023/12/16 16:07:06;;;;;;;;;;;;;;;9.56;49.88;98976.38;4190303;28;5948;-74
2023/12/16 16:09:09;;;;;;;;;;;;;;;9.55;50.09;98970.25;4196094;28;5809;-71
2023/12/16 16:11:12;;;;;;;;;;;;;;;9.57;50.14;98983.31;4189325;28;5740;-66
2023/12/16 16:13:15;;;;;;;;;;;;;;;9.53;50.15;98974.84;4197977;28;5838;-72
2023/12/16 16:15:19;;;;;;;;;;;;;;;9.50;50.11;98984.81;4197021;28;5699;-71
2023/12/16 16:17:21;;;;;;;;;;;;;;;9.47;50.36;98982.44;4190834;28;5793;-73
2023/12/16 16:19:24;;;;;;;;;;;;;;;9.46;50.43;98975.50;4196568;28;5802;-70
2023/12/16 16:21:28;;;;;;;;;;;;;;;9.45;50.24;98974.66;4197632;28;5778;-71
2023/12/16 16:23:32;;;;;;;;;;;;;;;9.46;50.33;98964.94;4197501;28;5815;-73
2023/12/16 16:25:34;;;;;;;;;;;;;;;9.45;50.37;98971.19;4198043;28;5851;-72
2023/12/16 16:27:37;;;;;;;;;;;;;;;9.42;50.59;98976.75;4199993;28;5798;-75
2023/12/16 16:29:43;;;;;;;;;;;;;;;9.42;50.34;98976.75;4201009;28;5708;-76
2023/12/16 16:31:46;;;;;;;;;;;;;;;9.43;50.55;98978.41;4190803;28;5717;-67
2023/12/16 16:33:49;;;;;;;;;;;;;;;9.44;50.35;98974.81;4197299;28;5770;-64
2023/12/16 16:35:53;;;;;;;;;;;;;;;9.43;50.60;98981.06;4194525;28;5787;-66
2023/12/16 16:37:56;;;;;;;;;;;;;;;9.38;50.70;98977.97;4184852;28;5823;-71
2023/12/16 16:40:00;;;;;;;;;;;;;;;9.39;50.79;98976.97;4193882;28;5903;-68
2023/12/16 16:42:03;;;;;;;;;;;;;;;9.38;50.38;98976.16;4198352;28;5914;-72
2023/12/16 16:44:06;;;;;;;;;;;;;;;9.38;50.68;98972.69;4189983;28;5780;-73
2023/12/16 16:46:09;;;;;;;;;;;;;;;9.39;50.58;98971.69;4189569;28;5833;-74
2023/12/16 16:48:12;;;;;;;;;;;;;;;9.39;50.84;98974.34;4192638;28;5096;-72
2023/12/16 16:50:15;;;;;;;;;;;;;;;9.37;50.70;98966.56;4190776;28;7704;-66
2023/12/16 16:52:19;;;;;;;;;;;;;;;9.36;50.71;98967.53;4190846;28;5971;-65
2023/12/16 16:54:22;;;;;;;;;;;;;;;9.38;50.78;98972.69;4196367;28;5834;-71
2023/12/16 16:56:27;;;;;;;;;;;;;;;9.38;50.78;98977.97;4192584;28;5775;-68
2023/12/16 16:58:30;;;;;;;;;;;;;;;9.38;50.93;98978.78;4186114;28;5800;-72
2023/12/16 17:00:34;;;;;;;;;;;;;;;9.37;50.92;98976.28;4192533;28;5786;-75
2023/12/16 17:02:37;;;;;;;;;;;;;;;9.36;51.05;98980.72;4195775;28;5814;-69
2023/12/16 17:04:41;;;;;;;;;;;;;;;9.34;50.58;98972.94;4198178;28;5695;-72
2023/12/16 17:06:43;;;;;;;;;;;;;;;9.34;51.00;98962.38;4199620;28;5821;-67
2023/12/16 17:08:46;;;;;;;;;;;;;;;9.33;50.92;98966.00;4195720;28;5807;-78
2023/12/16 17:10:49;;;;;;;;;;;;;;;9.31;50.90;98973.22;4189822;28;6402;-71
2023/12/16 17:12:54;;;;;;;;;;;;;;;9.28;51.04;98968.19;4199363;28;5684;-76
2023/12/16 17:15:01;;;;;;;;;;;;;;;9.28;50.78;98972.63;4191783;28;5850;-66
2023/12/16 17:17:04;;;;;;;;;;;;;;;9.26;51.18;98975.41;4183954;28;5802;-63
2023/12/16 17:19:08;;;;;;;;;;;;;;;9.24;50.90;98965.94;4186071;28;5817;-70
2023/12/16 17:21:12;;;;;;;;;;;;;;;9.22;50.86;98965.25;4197464;28;5870;-69
2023/12/16 17:23:14;;;;;;;;;;;;;;;9.21;50.89;98972.34;4193240;28;5936;-67
2023/12/16 17:25:18;;;;;;;;;;;;;;;9.18;51.10;98979.69;4188547;28;5796;-67
2023/12/16 17:27:21;;;;;;;;;;;;;;;9.16;50.78;98969.22;4194042;28;5733;-69
2023/12/16 17:29:25;;;;;;;;;;;;;;;9.16;50.99;98973.69;4192702;28;5110;-71
2023/12/16 17:31:27;;;;;;;;;;;;;;;9.15;51.24;98972.00;4191334;28;5847;-72
2023/12/16 17:33:31;;;;;;;;;;;;;;;9.16;50.93;98982.44;4193528;28;5802;-68
2023/12/16 17:35:38;;;;;;;;;;;;;;;9.17;51.10;98975.34;4187496;28;5877;-69
2023/12/16 17:37:41;;;;;;;;;;;;;;;9.17;51.15;98976.19;4190188;28;5816;-67
2023/12/16 17:39:44;;;;;;;;;;;;;;;9.15;51.10;98983.41;4185645;28;5823;-66
2023/12/16 17:41:47;;;;;;;;;;;;;;;9.14;51.49;98979.09;4194814;28;5777;-70
2023/12/16 17:43:50;;;;;;;;;;;;;;;9.14;51.33;98983.53;4193435;28;5846;-69
2023/12/16 17:45:54;;;;;;;;;;;;;;;9.15;51.29;98980.75;4199261;28;5794;-69
2023/12/16 17:47:57;;;;;;;;;;;;;;;9.15;51.32;98983.41;4194722;28;5699;-67
2023/12/16 17:50:00;;;;;;;;;;;;;;;9.13;51.11;98974.78;4194080;28;5787;-70
2023/12/16 17:52:04;;;;;;;;;;;;;;;9.13;51.53;98973.94;4189130;28;5709;-67
2023/12/16 17:54:07;;;;;;;;;;;;;;;9.13;51.57;98973.94;4191581;28;5810;-67
2023/12/16 17:56:10;;;;;;;;;;;;;;;9.14;51.37;98978.25;4199162;28;7122;-67
2023/12/16 17:58:12;;;;;;;;;;;;;;;9.15;51.46;98974.66;4201927;28;5688;-67
2023/12/16 18:00:15;;;;;;;;;;;;;;;9.15;51.42;98980.75;4201464;28;5700;-67
2023/12/16 18:02:20;;;;;;;;;;;;;;;9.14;51.55;98981.72;4201941;28;5691;-67
2023/12/16 18:04:23;;;;;;;;;;;;;;;9.14;51.42;98983.53;4187886;28;5745;-68
2023/12/16 18:06:27;;;;;;;;;;;;;;;9.13;51.30;98984.50;4199680;28;5704;-68
2023/12/16 18:08:30;;;;;;;;;;;;;;;9.13;51.58;98979.22;4193003;28;5842;-67
2023/12/16 18:10:34;;;;;;;;;;;;;;;9.12;51.55;98973.13;4201641;28;5703;-69
2023/12/16 18:12:38;;;;;;;;;;;;;;;9.12;51.62;98973.13;4201446;28;5703;-67
2023/12/16 18:14:43;;;;;;;;;;;;;;;9.08;51.67;98977.00;4184815;28;5724;-67
2023/12/16 18:16:48;;;;;;;;;;;;;;;9.09;51.51;98977.81;4185278;28;5817;-67
2023/12/16 18:18:52;;;;;;;;;;;;;;;9.07;51.54;98977.97;4185093;28;6335;-68
2023/12/16 18:20:57;;;;;;;;;;;;;;;9.07;51.98;98985.03;4195239;28;5720;-67
2023/12/16 18:23:04;;;;;;;;;;;;;;;9.04;51.84;98984.31;4201901;28;5684;-67
2023/12/16 18:25:07;;;;;;;;;;;;;;;9.03;51.99;98989.72;4201188;28;5691;-67
2023/12/16 18:27:10;;;;;;;;;;;;;;;9.01;52.14;98991.66;4188245;28;5753;-68
2023/12/16 18:29:12;;;;;;;;;;;;;;;8.98;51.99;98990.13;4192642;28;5737;-68
2023/12/16 18:31:16;;;;;;;;;;;;;;;8.98;51.92;98989.28;4193155;28;5693;-68
2023/12/16 18:33:21;;;;;;;;;;;;;;;8.96;52.18;98992.06;4185155;28;5792;-68
2023/12/16 18:35:25;;;;;;;;;;;;;;;8.95;52.24;99000.09;4184860;28;5733;-68
2023/12/16 18:37:28;;;;;;;;;;;;;;;8.92;52.05;99001.19;4184960;28;5994;-67
2023/12/16 18:39:33;;;;;;;;;;;;;;;8.91;52.31;99006.59;4191570;28;5823;-68
2023/12/16 18:41:35;;;;;;;;;;;;;;;8.90;52.35;98989.91;4185233;28;5717;-67
2023/12/16 18:43:39;;;;;;;;;;;;;;;8.88;52.40;98996.31;4200568;28;5691;-68
2023/12/16 18:45:42;;;;;;;;;;;;;;;8.88;52.51;99006.84;4192702;28;5717;-68
2023/12/16 18:47:44;;;;;;;;;;;;;;;8.86;52.32;99003.50;4193106;28;5699;-68
2023/12/16 18:49:47;;;;;;;;;;;;;;;8.84;52.58;98994.91;4201268;28;5902;-68
2023/12/16 18:51:52;;;;;;;;;;;;;;;8.84;52.81;99000.16;4191130;28;5819;-69
2023/12/16 18:53:56;;;;;;;;;;;;;;;8.82;52.45;99002.06;4194595;28;5778;-68
2023/12/16 18:56:00;;;;;;;;;;;;;;;8.80;52.84;99010.13;4198677;28;5707;-67